Rankings de siempre
Mejores tiempos personales válidos de atleta a través de todos los eventos y temporadas. Cada atleta aparece una vez por división.
Busca por nombre y abre la página donde está clasificado este récord de división.
104,510 atletas clasificados
| Pos. | Pos. AG | Atleta | Nacionalidad | Categoría de edad | TiempoMejor tiempo | Diferencia |
|---|---|---|---|---|---|---|
| 12926 | #3541 | Morgane FerréFRA · W 25-29 · AG #3541 | FRA | W 25-29 | 1:19:10 | +39:34 |
| 12927 | #673 | Angela McguireGBR · W 45-49 · AG #673 | GBR | W 45-49 | 1:19:10 | +39:34 |
| 12928 | #3543 | Isabelle RaynerGBR · W 25-29 · AG #3543 | GBR | W 25-29 | 1:19:10 | +39:34 |
| 12929 | #3492 | Pauline CaussinFRA · W 30-34 · AG #3492 | FRA | W 30-34 | 1:19:10 | +39:34 |
| 12930 | #1526 | Simone DonaldAUS · W 40-44 · AG #1526 | AUS | W 40-44 | 1:19:10 | +39:34 |
| 12931 | #3490 | Samantha BarkerGBR · W 30-34 · AG #3490 | GBR | W 30-34 | 1:19:10 | +39:34 |
| 12932 | #1527 | Anabela LourençoPOR · W 40-44 · AG #1527 | POR | W 40-44 | 1:19:10 | +39:34 |
| 12933 | #1768 | Kathleen SmithUSA · W 16-24 · AG #1768 | USA | W 16-24 | 1:19:11 | +39:35 |
| 12934 | #215 | Cristiana BarottiITA · W 50-54 · AG #215 | ITA | W 50-54 | 1:19:11 | +39:35 |
| 12935 | #1769 | Meinke WuisNED · W 16-24 · AG #1769 | NED | W 16-24 | 1:19:11 | +39:35 |
| 12936 | #2309 | Siqi SunCHN · W 35-39 · AG #2309 | CHN | W 35-39 | 1:19:11 | +39:35 |
| 12937 | #3545 | Sieun LeeKOR · W 25-29 · AG #3545 | KOR | W 25-29 | 1:19:11 | +39:35 |
| 12938 | #2308 | Laura CariniITA · W 35-39 · AG #2308 | ITA | W 35-39 | 1:19:11 | +39:35 |
| 12939 | #3498 | Katey McelroyIRL · W 30-34 · AG #3498 | IRL | W 30-34 | 1:19:11 | +39:35 |
| 12940 | #2310 | Claire DochertyGBR · W 35-39 · AG #2310 | GBR | W 35-39 | 1:19:11 | +39:35 |
| 12941 | #3499 | Megan KedwellAUS · W 30-34 · AG #3499 | AUS | W 30-34 | 1:19:11 | +39:35 |
| 12942 | #1770 | Mia MiskovicCRO · W 16-24 · AG #1770 | CRO | W 16-24 | 1:19:11 | +39:35 |
| 12943 | #2311 | Andrea Auer Di GasperoAUT · W 35-39 · AG #2311 | AUT | W 35-39 | 1:19:11 | +39:35 |
| 12944 | #676 | Kirsty MissoGBR · W 45-49 · AG #676 | GBR | W 45-49 | 1:19:11 | +39:35 |
| 12945 | #675 | Kate NobleGBR · W 45-49 · AG #675 | GBR | W 45-49 | 1:19:11 | +39:35 |
| 12946 | #3500 | Rachel MarshallGBR · W 30-34 · AG #3500 | GBR | W 30-34 | 1:19:11 | +39:35 |
| 12947 | #674 | Anne FischerGER · W 45-49 · AG #674 | GER | W 45-49 | 1:19:11 | +39:35 |
| 12948 | #3546 | Laura Caballero AlvaroESP · W 25-29 · AG #3546 | ESP | W 25-29 | 1:19:11 | +39:35 |
| 12949 | #3501 | Nora ZimmermannGER · W 30-34 · AG #3501 | GER | W 30-34 | 1:19:11 | +39:35 |
| 12950 | #3547 | Lois GregoryGBR · W 25-29 · AG #3547 | GBR | W 25-29 | 1:19:11 | +39:35 |
Página 518 de 4,181